Accueil
METAR-TAF:

METAR-TAF

Aéroports :

Aéroport de Kangiqsualujjuaq

Kangiqsualujjuaq, Québec, Canada

latitude: 58-43N, longitude: 065-59W, altitude: 60 m

Observation

Le bulletin a été fait il y a 24 minutes, à 14:00 UTC
Vent 19 kt de sud/sud-est avec des rafales jusqu'à 26 kt
Température -32°C
Humidité 67%
Pression 1012 hPa
Visibilité: 24.1 km
Quelques nuages à une hauteur de 500 ft
Nuages épars à une hauteur de 2100 ft
Nuages épars à une hauteur de 3400 ft
Chasse-neige basse

METAR: CYLU 181400Z 15019G26KT 15SM DRSN FEW005 SCT021 SCT034 M32/M36 A2989 RMK ST1SC2SC1 SC TR SLP136

Heure: 09:24 (14:24 UTC)


TAF: absent

Observations et prévisions météorologiques de plus de 4000 aéroports (messages METAR et TAF).

Les stations disponibles sont représentées par des disques jaunes et rouges sur la carte.

Passer la souris dessus pour voir le nom de la station.

Cliquer dessus pour voir les observations et prévisions météorologiques.

Pour changer de carte: cliquez sur les boutons verts avec une croix noire pour zoomer, sur le bouton vert avec un tiret pour effectuer un zoom arrière, ou sur les flèches vertes pour les cartes adjacentes.


METAR-TAF: